sensor_id;sensor_type;location;lat;lon;timestamp;pressure;altitude;pressure_sealevel;temperature;humidity
12666;BME280;58531;59.050;17.416;2022-12-22T00:02:21;99402.53;;;1.69;100.00
12666;BME280;58531;59.050;17.416;2022-12-22T00:05:12;99404.00;;;1.70;100.00
12666;BME280;58531;59.050;17.416;2022-12-22T00:07:57;99401.38;;;1.70;100.00
12666;BME280;58531;59.050;17.416;2022-12-22T00:10:41;99397.94;;;1.73;100.00
12666;BME280;58531;59.050;17.416;2022-12-22T00:13:25;99394.84;;;1.78;100.00
12666;BME280;58531;59.050;17.416;2022-12-22T00:16:09;99397.47;;;1.78;100.00
12666;BME280;58531;59.050;17.416;2022-12-22T00:18:55;99398.47;;;1.84;100.00
12666;BME280;58531;59.050;17.416;2022-12-22T00:21:39;99382.63;;;1.87;100.00
12666;BME280;58531;59.050;17.416;2022-12-22T00:24:24;99384.50;;;1.87;100.00
12666;BME280;58531;59.050;17.416;2022-12-22T00:27:12;99372.81;;;1.88;100.00
12666;BME280;58531;59.050;17.416;2022-12-22T00:29:57;99368.22;;;1.92;100.00
12666;BME280;58531;59.050;17.416;2022-12-22T00:32:42;99373.03;;;1.97;100.00
12666;BME280;58531;59.050;17.416;2022-12-22T00:35:28;99365.13;;;1.97;100.00
12666;BME280;58531;59.050;17.416;2022-12-22T00:38:14;99362.16;;;1.95;100.00
12666;BME280;58531;59.050;17.416;2022-12-22T00:40:59;99362.16;;;1.95;100.00
12666;BME280;58531;59.050;17.416;2022-12-22T00:43:44;99347.84;;;1.96;100.00
12666;BME280;58531;59.050;17.416;2022-12-22T00:46:28;99352.28;;;1.99;100.00
12666;BME280;58531;59.050;17.416;2022-12-22T00:49:13;99350.00;;;2.01;100.00
12666;BME280;58531;59.050;17.416;2022-12-22T00:51:59;99354.44;;;2.04;100.00
12666;BME280;58531;59.050;17.416;2022-12-22T00:54:43;99358.22;;;2.03;100.00
12666;BME280;58531;59.050;17.416;2022-12-22T00:57:27;99358.91;;;2.07;100.00
12666;BME280;58531;59.050;17.416;2022-12-22T01:00:15;99358.22;;;2.03;100.00
12666;BME280;58531;59.050;17.416;2022-12-22T01:02:59;99364.25;;;2.03;100.00
12666;BME280;58531;59.050;17.416;2022-12-22T01:05:44;99355.94;;;2.05;100.00
12666;BME280;58531;59.050;17.416;2022-12-22T01:08:30;99352.25;;;2.02;100.00
12666;BME280;58531;59.050;17.416;2022-12-22T01:11:15;99352.16;;;2.06;100.00
12666;BME280;58531;59.050;17.416;2022-12-22T01:13:59;99351.72;;;2.07;100.00
12666;BME280;58531;59.050;17.416;2022-12-22T01:16:43;99355.03;;;2.11;100.00
12666;BME280;58531;59.050;17.416;2022-12-22T01:19:27;99349.44;;;2.09;100.00
12666;BME280;58531;59.050;17.416;2022-12-22T01:22:12;99345.75;;;2.07;100.00
12666;BME280;58531;59.050;17.416;2022-12-22T01:24:59;99342.78;;;2.05;100.00
12666;BME280;58531;59.050;17.416;2022-12-22T01:27:44;99338.75;;;2.00;100.00
12666;BME280;58531;59.050;17.416;2022-12-22T01:30:28;99345.53;;;1.98;100.00
12666;BME280;58531;59.050;17.416;2022-12-22T01:33:12;99347.84;;;1.96;100.00
12666;BME280;58531;59.050;17.416;2022-12-22T01:35:56;99354.25;;;1.95;100.00
12666;BME280;58531;59.050;17.416;2022-12-22T01:38:40;99342.19;;;1.97;100.00
12666;BME280;58531;59.050;17.416;2022-12-22T01:41:26;99353.09;;;1.96;100.00
12666;BME280;58531;59.050;17.416;2022-12-22T01:44:15;99341.38;;;2.00;100.00
12666;BME280;58531;59.050;17.416;2022-12-22T01:47:30;99332.81;;;1.96;100.00
12666;BME280;58531;59.050;17.416;2022-12-22T01:50:15;99335.63;;;1.86;100.00
12666;BME280;58531;59.050;17.416;2022-12-22T01:53:01;99327.88;;;1.79;100.00
12666;BME280;58531;59.050;17.416;2022-12-22T01:55:47;99330.19;;;1.77;100.00
12666;BME280;58531;59.050;17.416;2022-12-22T01:58:37;99322.31;;;1.77;100.00
12666;BME280;58531;59.050;17.416;2022-12-22T02:01:24;99326.41;;;1.78;100.00
12666;BME280;58531;59.050;17.416;2022-12-22T02:04:08;99326.34;;;1.81;100.00
12666;BME280;58531;59.050;17.416;2022-12-22T02:06:58;99327.81;;;1.82;100.00
12666;BME280;58531;59.050;17.416;2022-12-22T02:09:53;99316.53;;;1.82;100.00
12666;BME280;58531;59.050;17.416;2022-12-22T02:12:45;99317.69;;;1.81;100.00
12666;BME280;58531;59.050;17.416;2022-12-22T02:15:42;99319.59;;;1.80;100.00
12666;BME280;58531;59.050;17.416;2022-12-22T02:18:33;99306.69;;;1.86;100.00
12666;BME280;58531;59.050;17.416;2022-12-22T02:21:23;99304.53;;;1.81;100.00
12666;BME280;58531;59.050;17.416;2022-12-22T02:24:15;99290.63;;;1.80;100.00
12666;BME280;58531;59.050;17.416;2022-12-22T02:27:05;99290.22;;;1.82;100.00
12666;BME280;58531;59.050;17.416;2022-12-22T02:29:53;99293.59;;;1.82;100.00
12666;BME280;58531;59.050;17.416;2022-12-22T02:32:41;99282.66;;;1.84;100.00
12666;BME280;58531;59.050;17.416;2022-12-22T02:35:26;99285.72;;;1.82;100.00
12666;BME280;58531;59.050;17.416;2022-12-22T02:38:18;99286.44;;;1.83;100.00
12666;BME280;58531;59.050;17.416;2022-12-22T02:41:13;99284.97;;;1.82;100.00
12666;BME280;58531;59.050;17.416;2022-12-22T02:44:16;99279.06;;;1.78;100.00
12666;BME280;58531;59.050;17.416;2022-12-22T02:47:05;99276.72;;;1.80;100.00
12666;BME280;58531;59.050;17.416;2022-12-22T02:49:54;99271.78;;;1.82;100.00
12666;BME280;58531;59.050;17.416;2022-12-22T02:52:40;99267.69;;;1.81;100.00
12666;BME280;58531;59.050;17.416;2022-12-22T02:55:26;99268.84;;;1.80;100.00
12666;BME280;58531;59.050;17.416;2022-12-22T02:58:11;99263.25;;;1.78;100.00
12666;BME280;58531;59.050;17.416;2022-12-22T03:00:56;99272.31;;;1.77;100.00
12666;BME280;58531;59.050;17.416;2022-12-22T03:03:41;99273.38;;;1.79;100.00
12666;BME280;58531;59.050;17.416;2022-12-22T03:06:25;99271.47;;;1.80;100.00
12666;BME280;58531;59.050;17.416;2022-12-22T03:09:09;99265.06;;;1.81;100.00
12666;BME280;58531;59.050;17.416;2022-12-22T03:11:53;99264.72;;;1.79;100.00
12666;BME280;58531;59.050;17.416;2022-12-22T03:14:37;99263.25;;;1.78;100.00
12666;BME280;58531;59.050;17.416;2022-12-22T03:17:23;99276.41;;;1.78;100.00
12666;BME280;58531;59.050;17.416;2022-12-22T03:20:08;99268.53;;;1.78;100.00
12666;BME280;58531;59.050;17.416;2022-12-22T03:22:52;99277.22;;;1.75;100.00
12666;BME280;58531;59.050;17.416;2022-12-22T03:25:36;99274.59;;;1.75;100.00
12666;BME280;58531;59.050;17.416;2022-12-22T03:28:23;99268.59;;;1.74;100.00
12666;BME280;58531;59.050;17.416;2022-12-22T03:30:55;99270.50;;;1.74;100.00
12666;BME280;58531;59.050;17.416;2022-12-22T03:33:24;99261.44;;;1.75;100.00
12666;BME280;58531;59.050;17.416;2022-12-22T03:35:51;99255.44;;;1.74;100.00
12666;BME280;58531;59.050;17.416;2022-12-22T03:38:18;99254.38;;;1.72;100.00
12666;BME280;58531;59.050;17.416;2022-12-22T03:40:45;99251.72;;;1.72;100.00
12666;BME280;58531;59.050;17.416;2022-12-22T03:43:13;99262.59;;;1.74;100.00
12666;BME280;58531;59.050;17.416;2022-12-22T03:45:59;99272.38;;;1.73;100.00
12666;BME280;58531;59.050;17.416;2022-12-22T03:48:50;99268.66;;;1.71;100.00
12666;BME280;58531;59.050;17.416;2022-12-22T03:51:30;99262.66;;;1.70;100.00
12666;BME280;58531;59.050;17.416;2022-12-22T03:53:57;99258.19;;;1.67;100.00
12666;BME280;58531;59.050;17.416;2022-12-22T03:56:24;99272.13;;;1.68;100.00
12666;BME280;58531;59.050;17.416;2022-12-22T03:58:51;99272.44;;;1.70;100.00
12666;BME280;58531;59.050;17.416;2022-12-22T04:01:18;99268.66;;;1.71;100.00
12666;BME280;58531;59.050;17.416;2022-12-22T04:03:45;99253.69;;;1.68;100.00
12666;BME280;58531;59.050;17.416;2022-12-22T04:06:13;99249.91;;;1.69;100.00
12666;BME280;58531;59.050;17.416;2022-12-22T04:08:40;99264.56;;;1.70;100.00
12666;BME280;58531;59.050;17.416;2022-12-22T04:11:08;99255.19;;;1.69;100.00
12666;BME280;58531;59.050;17.416;2022-12-22T04:13:52;99255.91;;;1.69;100.00
12666;BME280;58531;59.050;17.416;2022-12-22T04:16:19;99242.34;;;1.71;100.00
12666;BME280;58531;59.050;17.416;2022-12-22T04:18:46;99249.09;;;1.72;100.00
12666;BME280;58531;59.050;17.416;2022-12-22T04:21:14;99237.44;;;1.73;100.00
12666;BME280;58531;59.050;17.416;2022-12-22T04:23:41;99233.66;;;1.74;100.00
12666;BME280;58531;59.050;17.416;2022-12-22T04:26:08;99240.38;;;1.75;100.00
12666;BME280;58531;59.050;17.416;2022-12-22T04:28:35;99244.16;;;1.74;100.00
12666;BME280;58531;59.050;17.416;2022-12-22T04:31:02;99237.69;;;1.78;100.00
12666;BME280;58531;59.050;17.416;2022-12-22T04:33:29;99233.56;;;1.77;100.00
12666;BME280;58531;59.050;17.416;2022-12-22T04:35:56;99236.09;;;1.81;100.00
12666;BME280;58531;59.050;17.416;2022-12-22T04:38:24;99236.44;;;1.83;100.00
12666;BME280;58531;59.050;17.416;2022-12-22T04:40:51;99231.59;;;1.81;100.00
12666;BME280;58531;59.050;17.416;2022-12-22T04:43:18;99230.84;;;1.81;100.00
12666;BME280;58531;59.050;17.416;2022-12-22T04:45:44;99229.63;;;1.85;100.00
12666;BME280;58531;59.050;17.416;2022-12-22T04:48:11;99230.03;;;1.84;100.00
12666;BME280;58531;59.050;17.416;2022-12-22T04:50:38;99226.25;;;1.85;100.00
12666;BME280;58531;59.050;17.416;2022-12-22T04:53:05;99222.53;;;1.82;100.00
12666;BME280;58531;59.050;17.416;2022-12-22T04:55:33;99216.53;;;1.82;100.00
12666;BME280;58531;59.050;17.416;2022-12-22T04:58:00;99215.06;;;1.81;100.00
12666;BME280;58531;59.050;17.416;2022-12-22T05:00:27;99213.25;;;1.78;100.00
12666;BME280;58531;59.050;17.416;2022-12-22T05:02:54;99219.97;;;1.79;100.00
12666;BME280;58531;59.050;17.416;2022-12-22T05:05:20;99215.91;;;1.78;100.00
12666;BME280;58531;59.050;17.416;2022-12-22T05:07:47;99210.94;;;1.80;100.00
12666;BME280;58531;59.050;17.416;2022-12-22T05:10:14;99204.28;;;1.75;100.00
12666;BME280;58531;59.050;17.416;2022-12-22T05:12:42;99202.06;;;1.74;100.00
12666;BME280;58531;59.050;17.416;2022-12-22T05:15:22;99200.59;;;1.73;100.00
12666;BME280;58531;59.050;17.416;2022-12-22T05:17:50;99191.22;;;1.72;100.00
12666;BME280;58531;59.050;17.416;2022-12-22T05:20:18;99196.63;;;1.65;100.00
12666;BME280;58531;59.050;17.416;2022-12-22T05:22:45;99187.88;;;1.52;100.00
12666;BME280;58531;59.050;17.416;2022-12-22T05:25:12;99187.44;;;1.37;100.00
12666;BME280;58531;59.050;17.416;2022-12-22T05:27:42;99192.94;;;1.27;100.00
12666;BME280;58531;59.050;17.416;2022-12-22T05:30:10;99199.81;;;1.21;100.00
12666;BME280;58531;59.050;17.416;2022-12-22T05:32:37;99218.13;;;1.24;100.00
12666;BME280;58531;59.050;17.416;2022-12-22T05:35:05;99208.63;;;1.30;100.00
12666;BME280;58531;59.050;17.416;2022-12-22T05:37:33;99206.56;;;1.38;100.00
12666;BME280;58531;59.050;17.416;2022-12-22T05:40:00;99197.06;;;1.44;100.00
12666;BME280;58531;59.050;17.416;2022-12-22T05:42:27;99194.03;;;1.45;100.00
12666;BME280;58531;59.050;17.416;2022-12-22T05:45:06;99195.91;;;1.45;100.00
12666;BME280;58531;59.050;17.416;2022-12-22T05:47:33;99189.50;;;1.46;100.00
12666;BME280;58531;59.050;17.416;2022-12-22T05:50:00;99185.81;;;1.43;100.00
12666;BME280;58531;59.050;17.416;2022-12-22T05:52:27;99185.88;;;1.40;100.00
12666;BME280;58531;59.050;17.416;2022-12-22T05:54:54;99193.50;;;1.34;100.00
12666;BME280;58531;59.050;17.416;2022-12-22T05:57:21;99186.19;;;1.26;100.00
12666;BME280;58531;59.050;17.416;2022-12-22T05:59:48;99193.19;;;1.13;100.00
12666;BME280;58531;59.050;17.416;2022-12-22T06:02:16;99187.41;;;1.02;100.00
12666;BME280;58531;59.050;17.416;2022-12-22T06:04:43;99186.84;;;0.91;100.00
12666;BME280;58531;59.050;17.416;2022-12-22T06:07:10;99185.97;;;0.78;100.00
12666;BME280;58531;59.050;17.416;2022-12-22T06:09:37;99184.75;;;0.63;100.00
12666;BME280;58531;59.050;17.416;2022-12-22T06:12:04;99190.59;;;0.51;100.00
12666;BME280;58531;59.050;17.416;2022-12-22T06:14:32;99188.44;;;0.46;100.00
12666;BME280;58531;59.050;17.416;2022-12-22T06:16:59;99186.56;;;0.47;100.00
12666;BME280;58531;59.050;17.416;2022-12-22T06:19:27;99192.53;;;0.47;100.00
12666;BME280;58531;59.050;17.416;2022-12-22T06:21:54;99182.72;;;0.51;100.00
12666;BME280;58531;59.050;17.416;2022-12-22T06:24:21;99194.94;;;0.61;100.00
12666;BME280;58531;59.050;17.416;2022-12-22T06:26:48;99190.69;;;0.67;100.00
12666;BME280;58531;59.050;17.416;2022-12-22T06:29:14;99188.59;;;0.78;100.00
12666;BME280;58531;59.050;17.416;2022-12-22T06:31:41;99186.19;;;0.87;100.00
12666;BME280;58531;59.050;17.416;2022-12-22T06:34:09;99183.03;;;0.96;100.00
12666;BME280;58531;59.050;17.416;2022-12-22T06:36:37;99186.69;;;1.02;100.00
12666;BME280;58531;59.050;17.416;2022-12-22T06:39:04;99185.84;;;1.05;100.00
12666;BME280;58531;59.050;17.416;2022-12-22T06:41:31;99180.66;;;1.01;100.00
12666;BME280;58531;59.050;17.416;2022-12-22T06:44:15;99176.69;;;0.93;100.00
12666;BME280;58531;59.050;17.416;2022-12-22T06:46:42;99189.59;;;0.84;100.00
12666;BME280;58531;59.050;17.416;2022-12-22T06:49:09;99205.00;;;0.86;100.00
12666;BME280;58531;59.050;17.416;2022-12-22T06:51:37;99196.22;;;0.92;100.00
12666;BME280;58531;59.050;17.416;2022-12-22T06:54:04;99206.88;;;1.05;100.00
12666;BME280;58531;59.050;17.416;2022-12-22T06:56:31;99211.94;;;1.15;100.00
12666;BME280;58531;59.050;17.416;2022-12-22T06:58:58;99210.66;;;1.23;100.00
12666;BME280;58531;59.050;17.416;2022-12-22T07:01:25;99209.00;;;1.29;100.00
12666;BME280;58531;59.050;17.416;2022-12-22T07:03:52;99199.84;;;1.37;100.00
12666;BME280;58531;59.050;17.416;2022-12-22T07:06:19;99197.47;;;1.42;100.00
12666;BME280;58531;59.050;17.416;2022-12-22T07:08:48;99201.50;;;1.47;100.00
12666;BME280;58531;59.050;17.416;2022-12-22T07:11:15;99192.41;;;1.51;100.00
12666;BME280;58531;59.050;17.416;2022-12-22T07:13:42;99195.28;;;1.57;100.00
12666;BME280;58531;59.050;17.416;2022-12-22T07:16:10;99183.19;;;1.59;100.00
12666;BME280;58531;59.050;17.416;2022-12-22T07:18:40;99191.69;;;1.67;100.00
12666;BME280;58531;59.050;17.416;2022-12-22T07:21:08;99189.41;;;1.69;100.00
12666;BME280;58531;59.050;17.416;2022-12-22T07:23:36;99185.19;;;1.71;100.00
12666;BME280;58531;59.050;17.416;2022-12-22T07:26:06;99188.91;;;1.74;100.00
12666;BME280;58531;59.050;17.416;2022-12-22T07:28:34;99188.91;;;1.74;100.00
12666;BME280;58531;59.050;17.416;2022-12-22T07:31:02;99185.84;;;1.75;100.00
12666;BME280;58531;59.050;17.416;2022-12-22T07:33:28;99188.72;;;1.81;100.00
12666;BME280;58531;59.050;17.416;2022-12-22T07:36:04;99187.59;;;1.82;100.00
12666;BME280;58531;59.050;17.416;2022-12-22T07:38:33;99187.25;;;1.80;100.00
12666;BME280;58531;59.050;17.416;2022-12-22T07:41:01;99195.16;;;1.80;100.00
12666;BME280;58531;59.050;17.416;2022-12-22T07:43:29;99189.88;;;1.80;100.00
12666;BME280;58531;59.050;17.416;2022-12-22T07:45:55;99191.03;;;1.79;100.00
12666;BME280;58531;59.050;17.416;2022-12-22T07:48:21;99184.47;;;1.87;100.00
12666;BME280;58531;59.050;17.416;2022-12-22T07:51:06;99191.63;;;1.86;100.00
12666;BME280;58531;59.050;17.416;2022-12-22T07:53:33;99187.09;;;1.87;100.00
12666;BME280;58531;59.050;17.416;2022-12-22T07:56:01;99192.34;;;1.87;100.00
12666;BME280;58531;59.050;17.416;2022-12-22T07:58:30;99174.59;;;1.91;100.00
12666;BME280;58531;59.050;17.416;2022-12-22T08:00:58;99186.94;;;1.94;100.00
12666;BME280;58531;59.050;17.416;2022-12-22T08:03:25;99181.59;;;1.97;100.00
12666;BME280;58531;59.050;17.416;2022-12-22T08:05:52;99187.28;;;1.96;100.00
12666;BME280;58531;59.050;17.416;2022-12-22T08:08:18;99182.28;;;2.01;100.00
12666;BME280;58531;59.050;17.416;2022-12-22T08:10:45;99183.00;;;2.02;100.00
12666;BME280;58531;59.050;17.416;2022-12-22T08:13:12;99186.78;;;2.01;100.00
12666;BME280;58531;59.050;17.416;2022-12-22T08:15:40;99182.16;;;2.05;100.00
12666;BME280;58531;59.050;17.416;2022-12-22T08:18:07;99185.22;;;2.03;100.00
12666;BME280;58531;59.050;17.416;2022-12-22T08:20:34;99182.16;;;2.05;100.00
12666;BME280;58531;59.050;17.416;2022-12-22T08:23:01;99180.94;;;2.09;100.00
12666;BME280;58531;59.050;17.416;2022-12-22T08:25:29;99188.81;;;2.09;100.00
12666;BME280;58531;59.050;17.416;2022-12-22T08:27:56;99193.28;;;2.12;100.00
12666;BME280;58531;59.050;17.416;2022-12-22T08:30:23;99188.00;;;2.12;100.00
12666;BME280;58531;59.050;17.416;2022-12-22T08:32:52;99193.28;;;2.12;100.00
12666;BME280;58531;59.050;17.416;2022-12-22T08:35:19;99186.44;;;2.15;100.00
12666;BME280;58531;59.050;17.416;2022-12-22T08:37:46;99187.28;;;2.12;100.00
12666;BME280;58531;59.050;17.416;2022-12-22T08:40:17;99185.88;;;2.07;100.00
12666;BME280;58531;59.050;17.416;2022-12-22T08:42:45;99178.56;;;1.99;100.00
12666;BME280;58531;59.050;17.416;2022-12-22T08:45:14;99176.25;;;2.01;100.00
12666;BME280;58531;59.050;17.416;2022-12-22T08:47:41;99173.03;;;2.09;100.00
12666;BME280;58531;59.050;17.416;2022-12-22T08:50:09;99167.03;;;2.09;100.00
12666;BME280;58531;59.050;17.416;2022-12-22T08:52:37;99163.25;;;2.10;100.00
12666;BME280;58531;59.050;17.416;2022-12-22T08:55:04;99173.13;;;2.06;100.00
12666;BME280;58531;59.050;17.416;2022-12-22T08:57:32;99177.25;;;2.07;100.00
12666;BME280;58531;59.050;17.416;2022-12-22T08:59:58;99180.94;;;2.09;100.00
12666;BME280;58531;59.050;17.416;2022-12-22T09:02:25;99177.25;;;2.07;100.00
12666;BME280;58531;59.050;17.416;2022-12-22T09:04:52;99174.75;;;2.00;100.00
12666;BME280;58531;59.050;17.416;2022-12-22T09:07:21;99177.34;;;2.03;100.00
12666;BME280;58531;59.050;17.416;2022-12-22T09:09:48;99167.94;;;2.02;100.00
12666;BME280;58531;59.050;17.416;2022-12-22T09:12:15;99170.88;;;2.04;100.00
12666;BME280;58531;59.050;17.416;2022-12-22T09:14:42;99164.63;;;2.14;100.00
12666;BME280;58531;59.050;17.416;2022-12-22T09:17:09;99170.50;;;2.22;100.00
12666;BME280;58531;59.050;17.416;2022-12-22T09:19:35;99155.97;;;2.29;100.00
12666;BME280;58531;59.050;17.416;2022-12-22T09:22:02;99156.28;;;2.47;100.00
12666;BME280;58531;59.050;17.416;2022-12-22T09:24:31;99154.97;;;2.68;100.00
12666;BME280;58531;59.050;17.416;2022-12-22T09:26:58;99151.53;;;2.83;100.00
12666;BME280;58531;59.050;17.416;2022-12-22T09:29:25;99144.78;;;2.82;100.00
12666;BME280;58531;59.050;17.416;2022-12-22T09:31:51;99144.91;;;2.79;100.00
12666;BME280;58531;59.050;17.416;2022-12-22T09:34:18;99149.97;;;2.73;100.00
12666;BME280;58531;59.050;17.416;2022-12-22T09:36:46;99146.84;;;2.62;100.00
12666;BME280;58531;59.050;17.416;2022-12-22T09:39:13;99141.63;;;2.46;100.00
12666;BME280;58531;59.050;17.416;2022-12-22T09:41:44;99146.63;;;2.29;100.00
12666;BME280;58531;59.050;17.416;2022-12-22T09:44:18;99146.63;;;2.13;100.00
12666;BME280;58531;59.050;17.416;2022-12-22T09:46:47;99146.13;;;2.02;100.00
12666;BME280;58531;59.050;17.416;2022-12-22T09:49:16;99144.00;;;1.97;100.00
12666;BME280;58531;59.050;17.416;2022-12-22T09:51:46;99138.56;;;1.88;100.00
12666;BME280;58531;59.050;17.416;2022-12-22T09:54:14;99141.78;;;1.79;100.00
12666;BME280;58531;59.050;17.416;2022-12-22T09:56:45;99142.03;;;1.69;100.00
12666;BME280;58531;59.050;17.416;2022-12-22T09:59:14;99142.84;;;1.66;100.00
12666;BME280;58531;59.050;17.416;2022-12-22T10:02:04;99145.56;;;1.62;100.00
12666;BME280;58531;59.050;17.416;2022-12-22T10:04:48;99139.41;;;1.69;100.00
12666;BME280;58531;59.050;17.416;2022-12-22T10:07:24;99138.59;;;1.72;100.00
12666;BME280;58531;59.050;17.416;2022-12-22T10:09:55;99135.47;;;1.77;100.00
12666;BME280;58531;59.050;17.416;2022-12-22T10:12:24;99127.88;;;1.79;100.00
12666;BME280;58531;59.050;17.416;2022-12-22T10:14:53;99125.91;;;1.83;100.00
12666;BME280;58531;59.050;17.416;2022-12-22T10:17:22;99112.75;;;1.83;100.00
12666;BME280;58531;59.050;17.416;2022-12-22T10:19:51;99106.66;;;1.86;100.00
12666;BME280;58531;59.050;17.416;2022-12-22T10:22:25;99111.59;;;1.84;100.00
12666;BME280;58531;59.050;17.416;2022-12-22T10:24:53;99113.75;;;1.73;100.00
12666;BME280;58531;59.050;17.416;2022-12-22T10:27:21;99114.63;;;1.66;100.00
12666;BME280;58531;59.050;17.416;2022-12-22T10:29:50;99115.13;;;1.61;100.00
12666;BME280;58531;59.050;17.416;2022-12-22T10:32:18;99123.59;;;1.53;100.00
12666;BME280;58531;59.050;17.416;2022-12-22T10:34:58;99122.59;;;1.47;100.00
12666;BME280;58531;59.050;17.416;2022-12-22T10:37:30;99126.47;;;1.42;100.00
12666;BME280;58531;59.050;17.416;2022-12-22T10:40:14;99120.53;;;1.38;100.00
12666;BME280;58531;59.050;17.416;2022-12-22T10:42:46;99115.78;;;1.33;100.00
12666;BME280;58531;59.050;17.416;2022-12-22T10:45:20;99115.34;;;1.35;100.00
12666;BME280;58531;59.050;17.416;2022-12-22T10:47:49;99111.56;;;1.36;100.00
12666;BME280;58531;59.050;17.416;2022-12-22T10:50:18;99113.91;;;1.50;100.00
12666;BME280;58531;59.050;17.416;2022-12-22T10:52:50;99113.41;;;1.55;100.00
12666;BME280;58531;59.050;17.416;2022-12-22T10:55:21;99110.28;;;1.60;100.00
12666;BME280;58531;59.050;17.416;2022-12-22T10:57:50;99111.00;;;1.60;100.00
12666;BME280;58531;59.050;17.416;2022-12-22T11:00:25;99108.81;;;1.59;100.00
12666;BME280;58531;59.050;17.416;2022-12-22T11:02:53;99106.25;;;1.55;100.00
12666;BME280;58531;59.050;17.416;2022-12-22T11:05:20;99097.53;;;1.58;100.00
12666;BME280;58531;59.050;17.416;2022-12-22T11:07:48;99108.81;;;1.59;100.00
12666;BME280;58531;59.050;17.416;2022-12-22T11:10:18;99108.00;;;1.62;100.00
12666;BME280;58531;59.050;17.416;2022-12-22T11:12:58;99108.06;;;1.58;100.00
12666;BME280;58531;59.050;17.416;2022-12-22T11:15:33;99120.22;;;1.68;100.00
12666;BME280;58531;59.050;17.416;2022-12-22T11:18:13;99114.81;;;1.75;100.00
12666;BME280;58531;59.050;17.416;2022-12-22T11:20:53;99111.09;;;1.89;100.00
12666;BME280;58531;59.050;17.416;2022-12-22T11:23:27;99109.44;;;1.95;100.00
12666;BME280;58531;59.050;17.416;2022-12-22T11:26:05;99102.44;;;2.04;100.00
12666;BME280;58531;59.050;17.416;2022-12-22T11:28:49;99097.75;;;2.12;100.00
12666;BME280;58531;59.050;17.416;2022-12-22T11:31:38;99097.59;;;2.19;100.00
12666;BME280;58531;59.050;17.416;2022-12-22T11:34:17;99101.09;;;2.28;100.00
12666;BME280;58531;59.050;17.416;2022-12-22T11:36:57;99103.13;;;2.36;100.00
12666;BME280;58531;59.050;17.416;2022-12-22T11:39:36;99105.91;;;2.45;100.00
12666;BME280;58531;59.050;17.416;2022-12-22T11:42:22;99099.41;;;2.50;100.00
12666;BME280;58531;59.050;17.416;2022-12-22T11:45:02;99105.06;;;2.48;100.00
12666;BME280;58531;59.050;17.416;2022-12-22T11:47:40;99093.69;;;2.51;100.00
12666;BME280;58531;59.050;17.416;2022-12-22T11:50:30;99100.44;;;2.52;100.00
12666;BME280;58531;59.050;17.416;2022-12-22T11:53:25;99095.50;;;2.54;100.00
12666;BME280;58531;59.050;17.416;2022-12-22T11:56:05;99096.97;;;2.55;100.00
12666;BME280;58531;59.050;17.416;2022-12-22T11:58:47;99098.13;;;2.54;100.00
12666;BME280;58531;59.050;17.416;2022-12-22T12:01:34;99094.16;;;2.62;100.00
12666;BME280;58531;59.050;17.416;2022-12-22T12:04:19;99089.22;;;2.64;100.00
12666;BME280;58531;59.050;17.416;2022-12-22T12:06:59;99093.31;;;2.65;100.00
12666;BME280;58531;59.050;17.416;2022-12-22T12:09:37;99092.56;;;2.65;100.00
12666;BME280;58531;59.050;17.416;2022-12-22T12:12:14;99094.69;;;2.70;100.00
12666;BME280;58531;59.050;17.416;2022-12-22T12:14:49;99090.06;;;2.74;100.00
12666;BME280;58531;59.050;17.416;2022-12-22T12:17:27;99093.44;;;2.74;100.00
12666;BME280;58531;59.050;17.416;2022-12-22T12:23:12;99083.22;;;2.76;100.00
12666;BME280;58531;59.050;17.416;2022-12-22T12:25:48;99083.88;;;2.80;100.00
12666;BME280;58531;59.050;17.416;2022-12-22T12:28:23;99088.28;;;2.83;100.00
12666;BME280;58531;59.050;17.416;2022-12-22T12:30:55;99085.25;;;2.85;100.00
12666;BME280;58531;59.050;17.416;2022-12-22T12:33:32;99079.97;;;2.85;100.00
12666;BME280;58531;59.050;17.416;2022-12-22T12:36:07;99077.22;;;2.88;100.00
12666;BME280;58531;59.050;17.416;2022-12-22T12:38:44;99076.81;;;2.90;100.00
12666;BME280;58531;59.050;17.416;2022-12-22T12:41:21;99076.91;;;2.86;100.00
12666;BME280;58531;59.050;17.416;2022-12-22T12:43:50;99078.38;;;2.87;100.00
12666;BME280;58531;59.050;17.416;2022-12-22T12:46:44;99080.38;;;2.83;100.00
12666;BME280;58531;59.050;17.416;2022-12-22T12:52:12;99070.06;;;2.76;100.00
12666;BME280;58531;59.050;17.416;2022-12-22T12:54:41;99074.69;;;2.72;100.00
12666;BME280;58531;59.050;17.416;2022-12-22T12:57:27;99074.91;;;2.78;100.00
12666;BME280;58531;59.050;17.416;2022-12-22T12:59:55;99065.09;;;2.78;100.00
12666;BME280;58531;59.050;17.416;2022-12-22T13:02:37;99072.16;;;2.81;100.00
12666;BME280;58531;59.050;17.416;2022-12-22T13:08:12;99062.34;;;2.82;100.00
12666;BME280;58531;59.050;17.416;2022-12-22T13:13:50;99059.84;;;2.78;100.00
12666;BME280;58531;59.050;17.416;2022-12-22T13:16:29;99055.28;;;2.79;100.00
12666;BME280;58531;59.050;17.416;2022-12-22T13:18:56;99065.94;;;2.75;100.00
12666;BME280;58531;59.050;17.416;2022-12-22T13:21:27;99059.91;;;2.75;100.00
12666;BME280;58531;59.050;17.416;2022-12-22T13:23:58;99067.41;;;2.76;100.00
12666;BME280;58531;59.050;17.416;2022-12-22T13:26:32;99065.44;;;2.80;100.00
12666;BME280;58531;59.050;17.416;2022-12-22T13:29:06;99057.81;;;2.82;100.00
12666;BME280;58531;59.050;17.416;2022-12-22T13:31:39;99064.88;;;2.85;100.00
12666;BME280;58531;59.050;17.416;2022-12-22T13:34:34;99056.97;;;2.85;100.00
12666;BME280;58531;59.050;17.416;2022-12-22T13:37:09;99063.41;;;2.84;100.00
12666;BME280;58531;59.050;17.416;2022-12-22T13:39:38;99060.75;;;2.84;100.00
12666;BME280;58531;59.050;17.416;2022-12-22T13:42:09;99062.69;;;2.84;100.00